Time;durP1;ratioP1;P1;durP2;ratioP2;P2;SDS_P1;SDS_P2;PMS_P1;PMS_P2;Temp;Humidity;BMP_temperature;BMP_pressure;BME280_temperature;BME280_humidity;BME280_pressure;Samples;Min_cycle;Max_cycle;Signal;HPM_P1;HPM_P2
2021/01/03 00:01:08;;;;;;;3.75;1.92;;;26.10;88.80;;;;;;4950155;29;20035;-91
2021/01/03 00:03:37;;;;;;;2.00;1.63;;;26.00;89.20;;;;;;4891325;29;20032;-91
2021/01/03 00:06:13;;;;;;;2.38;1.58;;;25.90;89.00;;;;;;4923303;29;20030;-92
2021/01/03 00:08:46;;;;;;;5.70;1.95;;;25.90;89.10;;;;;;4951466;29;20024;-91
2021/01/03 00:11:16;;;;;;;;;;;25.90;89.20;;;;;;4950858;29;20348;-93
2021/01/03 00:13:47;;;;;;;5.72;3.45;;;25.80;89.50;;;;;;4947808;29;19911;-94
2021/01/03 00:16:37;;;;;;;4.07;2.67;;;25.80;89.10;;;;;;4932866;29;20251;-91
2021/01/03 00:19:06;;;;;;;4.90;2.83;;;25.70;89.10;;;;;;4946159;29;20019;-93
2021/01/03 00:21:33;;;;;;;6.57;4.68;;;25.60;89.00;;;;;;4948388;29;20038;-94
2021/01/03 00:23:59;;;;;;;8.02;5.80;;;25.70;89.00;;;;;;4949149;29;20020;-93
2021/01/03 00:26:27;;;;;;;10.65;5.05;;;25.70;88.70;;;;;;4931882;28;20039;-92
2021/01/03 00:28:54;;;;;;;3.33;2.80;;;25.70;89.00;;;;;;4969529;28;20271;-89
2021/01/03 00:31:24;;;;;;;6.22;2.25;;;25.70;88.50;;;;;;4969552;28;20184;-92
2021/01/03 00:33:56;;;;;;;3.40;2.50;;;25.60;88.50;;;;;;4973194;28;20022;-90
2021/01/03 00:36:29;;;;;;;3.95;2.40;;;25.60;88.70;;;;;;4986638;28;20046;-90
2021/01/03 00:38:55;;;;;;;2.42;1.73;;;25.50;89.00;;;;;;4969847;28;20019;-91
2021/01/03 00:41:41;;;;;;;5.43;1.77;;;25.50;89.10;;;;;;4971503;28;20027;-92
2021/01/03 00:44:09;;;;;;;4.95;3.67;;;25.40;88.80;;;;;;4970148;28;20119;-91
2021/01/03 00:46:37;;;;;;;1.92;1.30;;;25.40;88.90;;;;;;4971959;28;20026;-90
2021/01/03 00:49:04;;;;;;;4.18;1.25;;;25.40;88.70;;;;;;4969730;28;20301;-89
2021/01/03 00:51:31;;;;;;;2.55;1.23;;;25.40;88.60;;;;;;4986187;28;20206;-91
2021/01/03 00:53:59;;;;;;;2.70;1.38;;;25.40;88.70;;;;;;4968834;28;20026;-89
2021/01/03 00:56:27;;;;;;;3.00;1.10;;;25.40;88.60;;;;;;4954027;28;20034;-90
2021/01/03 00:58:55;;;;;;;3.10;1.20;;;25.30;88.70;;;;;;4972417;28;20018;-89
2021/01/03 01:01:43;;;;;;;4.03;1.10;;;25.30;88.50;;;;;;4976023;28;20026;-88
2021/01/03 01:04:12;;;;;;;3.28;1.80;;;25.30;88.60;;;;;;4987982;28;20323;-87
2021/01/03 01:06:40;;;;;;;4.75;1.70;;;25.30;88.10;;;;;;4959249;28;20109;-90
2021/01/03 01:09:09;;;;;;;4.13;1.50;;;25.20;88.40;;;;;;4958446;28;20025;-91
2021/01/03 01:11:42;;;;;;;3.35;1.25;;;25.10;88.60;;;;;;4959681;28;20050;-88
2021/01/03 01:14:13;;;;;;;1.20;1.02;;;25.10;89.60;;;;;;4974143;28;20073;-91
2021/01/03 01:16:53;;;;;;;3.65;1.50;;;25.00;89.50;;;;;;4975380;28;20038;-93
2021/01/03 01:19:24;;;;;;;3.72;1.50;;;25.00;89.70;;;;;;4989536;28;20345;-93
2021/01/03 01:21:51;;;;;;;2.47;1.10;;;25.00;89.70;;;;;;4958687;28;20041;-91
2021/01/03 01:24:33;;;;;;;1.90;1.08;;;24.90;89.60;;;;;;4976906;28;20258;-88
2021/01/03 01:27:14;;;;;;;4.70;1.75;;;24.90;89.80;;;;;;4993977;28;20030;-90
2021/01/03 01:29:41;;;;;;;2.95;1.50;;;24.90;89.80;;;;;;4975680;28;20342;-90
2021/01/03 01:32:11;;;;;;;1.38;0.95;;;24.90;89.60;;;;;;4976344;28;20227;-92
2021/01/03 01:34:48;;;;;;;1.23;0.85;;;24.80;89.70;;;;;;4974032;28;20042;-94
2021/01/03 01:37:29;;;;;;;3.08;1.38;;;24.80;89.20;;;;;;4975773;28;20026;-93
2021/01/03 01:40:08;;;;;;;1.92;1.25;;;24.70;89.40;;;;;;4992796;28;20027;-90
2021/01/03 01:42:43;;;;;;;2.15;1.38;;;24.70;89.70;;;;;;4990007;28;20073;-90
2021/01/03 01:45:29;;;;;;;1.85;1.45;;;24.60;90.00;;;;;;4974758;28;20038;-88
2021/01/03 01:48:26;;;;;;;5.00;2.70;;;24.60;89.50;;;;;;4978154;28;20082;-89
2021/01/03 01:51:19;;;;;;;4.95;3.42;;;24.60;89.80;;;;;;4963765;28;20082;-91
2021/01/03 01:53:59;;;;;;;5.85;3.33;;;24.60;89.60;;;;;;4973198;28;20320;-92
2021/01/03 01:56:38;;;;;;;5.72;4.40;;;24.60;89.30;;;;;;4973299;28;20050;-92
2021/01/03 01:59:21;;;;;;;2.63;1.85;;;24.60;89.40;;;;;;4977171;28;20026;-91
2021/01/03 02:02:07;;;;;;;9.30;6.40;;;24.60;88.80;;;;;;4974648;28;20023;-94
2021/01/03 02:04:56;;;;;;;8.27;6.28;;;24.50;89.30;;;;;;4972740;28;20030;-90
2021/01/03 02:07:35;;;;;;;10.93;5.78;;;24.60;89.30;;;;;;4969745;28;20034;-91
2021/01/03 02:10:31;;;;;;;9.70;6.35;;;24.60;89.00;;;;;;4971525;28;20038;-90
2021/01/03 02:13:11;;;;;;;8.30;3.83;;;24.60;89.20;;;;;;4988630;28;20238;-91
2021/01/03 02:15:39;;;;;;;9.40;6.40;;;24.60;88.40;;;;;;4970754;28;20230;-89
2021/01/03 02:18:08;;;;;;;5.63;3.00;;;24.50;88.80;;;;;;4972621;28;20203;-88
2021/01/03 02:21:12;;;;;;;2.47;1.83;;;24.50;88.80;;;;;;4971735;28;20180;-88
2021/01/03 02:24:16;;;;;;;2.92;1.50;;;24.50;88.20;;;;;;4972431;28;20033;-87
2021/01/03 02:26:50;;;;;;;4.45;2.33;;;24.60;88.50;;;;;;4989582;28;20081;-88
2021/01/03 02:29:33;;;;;;;;;;;;;;;;;;;;;
2021/01/03 02:32:03;;;;;;;3.58;2.10;;;24.60;88.40;;;;;;4956937;28;20279;-89
2021/01/03 02:34:41;;;;;;;2.40;1.40;;;24.50;88.80;;;;;;4988218;28;20023;-89
2021/01/03 02:37:17;;;;;;;3.15;1.48;;;24.50;88.50;;;;;;4970705;28;20227;-89
2021/01/03 02:39:58;;;;;;;2.78;0.93;;;24.50;88.50;;;;;;4990005;28;20098;-88
2021/01/03 02:42:32;;;;;;;1.10;0.82;;;24.50;88.70;;;;;;4988958;28;20018;-88
2021/01/03 02:45:00;;;;;;;1.60;0.93;;;24.50;88.60;;;;;;4971995;28;20312;-89
2021/01/03 02:47:34;;;;;;;1.38;0.63;;;24.50;88.60;;;;;;4971798;28;20035;-88
2021/01/03 02:50:09;;;;;;;1.73;0.80;;;24.60;88.10;;;;;;4971221;28;20026;-89
2021/01/03 02:52:39;;;;;;;2.67;0.70;;;24.60;87.90;;;;;;4971671;28;20022;-88
2021/01/03 02:55:16;;;;;;;1.42;0.80;;;24.60;87.60;;;;;;4975427;28;20030;-87
2021/01/03 02:57:50;;;;;;;0.68;0.63;;;24.60;87.50;;;;;;4990736;28;20307;-88
2021/01/03 03:00:29;;;;;;;1.58;0.60;;;24.60;87.80;;;;;;4970407;28;20065;-87
2021/01/03 03:02:56;;;;;;;1.85;0.70;;;24.60;87.20;;;;;;4970747;28;20027;-89
2021/01/03 03:05:26;;;;;;;0.80;0.47;;;24.70;87.40;;;;;;4987604;28;20053;-87
2021/01/03 03:07:54;;;;;;;1.73;0.50;;;24.70;86.90;;;;;;4987864;28;20021;-87
2021/01/03 03:10:25;;;;;;;2.17;0.50;;;24.70;87.50;;;;;;4967435;28;20031;-88
2021/01/03 03:13:02;;;;;;;2.22;0.82;;;24.60;86.60;;;;;;4991418;28;20033;-88
2021/01/03 03:15:35;;;;;;;2.67;0.85;;;24.60;86.80;;;;;;4988300;28;20319;-88
2021/01/03 03:18:02;;;;;;;2.15;1.02;;;24.60;86.40;;;;;;4970979;28;20214;-89
2021/01/03 03:20:30;;;;;;;1.40;0.85;;;24.60;87.00;;;;;;4971911;28;20074;-90
2021/01/03 03:22:57;;;;;;;1.40;0.70;;;24.60;86.50;;;;;;4970134;28;20046;-89
2021/01/03 03:25:26;;;;;;;2.63;0.65;;;24.60;86.90;;;;;;4972546;28;20191;-88
2021/01/03 03:27:54;;;;;;;1.10;0.65;;;24.60;86.30;;;;;;4970694;28;20073;-89
2021/01/03 03:30:23;;;;;;;0.90;0.77;;;24.60;86.50;;;;;;4965707;28;20331;-88
2021/01/03 03:32:52;;;;;;;1.65;0.80;;;24.60;86.30;;;;;;4971557;28;20097;-87
2021/01/03 03:35:22;;;;;;;0.80;0.63;;;24.70;86.30;;;;;;4968232;28;20093;-87
2021/01/03 03:37:48;;;;;;;1.52;0.80;;;24.60;86.30;;;;;;4968918;28;20051;-87
2021/01/03 03:40:16;;;;;;;0.63;0.47;;;24.60;86.50;;;;;;4972527;28;20073;-89
2021/01/03 03:42:42;;;;;;;2.28;0.60;;;24.70;86.50;;;;;;4989948;28;20018;-88
2021/01/03 03:45:11;;;;;;;1.98;0.60;;;24.60;86.60;;;;;;4968329;28;20022;-88
2021/01/03 03:47:38;;;;;;;2.95;0.98;;;24.60;86.60;;;;;;4969309;28;20085;-89
2021/01/03 03:50:07;;;;;;;1.60;0.57;;;24.60;86.90;;;;;;4968589;28;20023;-89
2021/01/03 03:52:34;;;;;;;2.35;0.75;;;24.60;86.70;;;;;;4987015;28;20015;-89
2021/01/03 03:55:00;;;;;;;2.33;0.82;;;24.60;86.80;;;;;;4986955;28;20053;-88
2021/01/03 03:57:32;;;;;;;1.52;0.85;;;24.70;86.10;;;;;;4968915;28;20017;-89
2021/01/03 03:59:59;;;;;;;1.73;0.80;;;24.80;86.20;;;;;;4969075;28;20094;-88
2021/01/03 04:02:27;;;;;;;2.58;1.10;;;24.70;86.30;;;;;;4968949;28;20082;-88
2021/01/03 04:04:54;;;;;;;1.95;0.60;;;24.80;86.30;;;;;;4969075;28;20022;-88
2021/01/03 04:07:21;;;;;;;2.55;0.90;;;24.80;85.80;;;;;;4970644;28;20033;-89
2021/01/03 04:10:21;;;;;;;0.70;0.60;;;24.90;85.80;;;;;;4972499;28;20030;-92
2021/01/03 04:13:04;;;;;;;;;;;;;;;;;;;;;
2021/01/03 04:15:31;;;;;;;2.20;0.63;;;24.90;84.80;;;;;;4974319;28;20046;-92
2021/01/03 04:18:13;;;;;;;1.15;0.60;;;24.90;84.80;;;;;;4989404;28;20243;-91
2021/01/03 04:20:42;;;;;;;0.98;0.63;;;25.00;84.30;;;;;;4971048;28;20035;-92
2021/01/03 04:23:16;;;;;;;2.67;0.77;;;25.00;83.90;;;;;;4972554;28;20026;-89
2021/01/03 04:25:50;;;;;;;3.47;0.70;;;25.00;83.40;;;;;;4971360;28;20019;-92
2021/01/03 04:28:45;;;;;;;1.85;0.60;;;25.00;83.80;;;;;;4926577;28;20330;-93
2021/01/03 04:31:43;;;;;;;1.23;0.60;;;25.00;83.70;;;;;;4963480;28;20073;-93
2021/01/03 04:34:22;;;;;;;1.58;0.65;;;25.00;84.00;;;;;;4972050;28;20031;-93
2021/01/03 04:36:51;;;;;;;4.72;0.70;;;25.00;83.90;;;;;;4952170;29;20375;-91
2021/01/03 04:39:31;;;;;;;1.05;0.60;;;25.00;83.90;;;;;;4939718;29;20054;-92
2021/01/03 04:42:09;;;;;;;0.90;0.50;;;25.00;83.90;;;;;;4920583;29;20034;-91
2021/01/03 04:44:58;;;;;;;0.50;0.50;;;25.10;83.70;;;;;;4940094;29;20031;-93
2021/01/03 04:48:10;;;;;;;2.08;0.70;;;25.10;83.50;;;;;;4936478;29;20282;-91
2021/01/03 04:51:14;;;;;;;0.47;0.47;;;25.10;83.70;;;;;;4967953;29;20046;-93
2021/01/03 04:54:22;;;;;;;1.60;0.70;;;25.10;83.60;;;;;;4952848;29;20041;-94
2021/01/03 04:56:56;;;;;;;1.77;0.85;;;25.10;84.10;;;;;;4898406;29;20112;-93
2021/01/03 04:59:44;;;;;;;2.78;0.55;;;25.10;83.90;;;;;;4951575;29;20033;-92
2021/01/03 05:02:47;;;;;;;1.98;0.70;;;25.10;84.10;;;;;;4936441;29;20244;-92
2021/01/03 05:05:44;;;;;;;1.25;0.50;;;25.00;84.30;;;;;;4950618;29;20039;-92
2021/01/03 05:08:40;;;;;;;1.70;0.70;;;25.10;84.30;;;;;;4936682;29;20027;-92
2021/01/03 05:11:21;;;;;;;1.23;0.65;;;25.10;83.90;;;;;;4933762;29;20031;-92
2021/01/03 05:14:22;;;;;;;0.70;0.60;;;25.10;84.40;;;;;;4944424;29;20023;-93
2021/01/03 05:16:55;;;;;;;0.73;0.50;;;25.10;83.90;;;;;;4948657;29;20058;-92
2021/01/03 05:19:24;;;;;;;2.92;0.52;;;25.10;84.30;;;;;;4965071;29;20039;-93
2021/01/03 05:21:57;;;;;;;0.60;0.40;;;25.10;84.60;;;;;;4965460;29;20066;-93
2021/01/03 05:24:30;;;;;;;2.55;0.70;;;25.10;84.90;;;;;;4965167;29;20035;-92
2021/01/03 05:27:16;;;;;;;1.48;0.70;;;25.10;85.00;;;;;;4948791;29;20015;-92
2021/01/03 05:29:50;;;;;;;1.48;0.85;;;25.10;85.10;;;;;;4965899;29;20091;-92
2021/01/03 05:32:33;;;;;;;2.00;0.70;;;25.10;85.10;;;;;;4956601;29;20019;-92
2021/01/03 05:34:59;;;;;;;;;;;25.10;85.50;;;;;;4960825;29;20050;-90
2021/01/03 05:37:30;;;;;;;3.33;1.13;;;25.10;85.50;;;;;;4957595;29;19903;-90
2021/01/03 05:39:58;;;;;;;0.55;0.50;;;25.10;85.50;;;;;;4956767;29;20027;-90
2021/01/03 05:42:37;;;;;;;1.30;0.50;;;25.10;85.90;;;;;;4962832;28;20031;-96
2021/01/03 05:45:27;;;;;;;2.33;0.52;;;25.00;86.10;;;;;;4963160;29;20035;-85
2021/01/03 05:47:58;;;;;;;1.80;0.80;;;25.00;85.90;;;;;;4961026;29;20022;-85
2021/01/03 05:50:27;;;;;;;1.03;0.73;;;25.00;86.10;;;;;;4958086;29;20315;-92
2021/01/03 05:53:06;;;;;;;2.53;0.88;;;25.00;86.30;;;;;;4952932;29;20015;-93
2021/01/03 05:55:34;;;;;;;1.65;0.80;;;25.00;86.00;;;;;;4952740;29;20038;-93
2021/01/03 05:58:36;;;;;;;0.75;0.50;;;25.00;86.40;;;;;;4953846;29;20065;-94
2021/01/03 06:01:20;;;;;;;1.43;0.80;;;25.00;86.30;;;;;;4937501;29;20039;-92
2021/01/03 06:04:20;;;;;;;3.15;0.60;;;24.90;87.00;;;;;;4952441;29;20123;-93
2021/01/03 06:07:21;;;;;;;0.73;0.40;;;24.90;86.70;;;;;;4951263;29;20032;-93
2021/01/03 06:09:48;;;;;;;2.15;0.65;;;24.90;86.70;;;;;;4951633;29;20082;-93
2021/01/03 06:12:19;;;;;;;3.25;0.68;;;24.90;86.80;;;;;;4952191;29;20086;-93
2021/01/03 06:14:52;;;;;;;1.38;0.50;;;24.90;86.70;;;;;;4953688;29;20031;-94
2021/01/03 06:17:40;;;;;;;1.98;0.98;;;24.90;87.00;;;;;;4952308;29;20054;-92
2021/01/03 06:20:41;;;;;;;2.67;0.77;;;24.90;86.80;;;;;;4970382;29;20023;-93
2021/01/03 06:23:30;;;;;;;1.98;0.82;;;24.90;86.40;;;;;;4952512;29;20027;-93
2021/01/03 06:26:21;;;;;;;1.23;0.40;;;24.90;86.70;;;;;;4953672;29;20023;-91
2021/01/03 06:28:56;;;;;;;2.95;0.88;;;24.90;87.00;;;;;;4940754;29;20039;-92
2021/01/03 06:32:08;;;;;;;1.75;0.75;;;24.90;86.60;;;;;;4930416;29;20051;-90
2021/01/03 06:34:45;;;;;;;1.60;1.10;;;24.80;86.80;;;;;;4928061;29;20035;-92
2021/01/03 06:37:56;;;;;;;1.33;0.50;;;24.80;86.50;;;;;;4956030;29;20046;-92
2021/01/03 06:40:44;;;;;;;2.45;0.50;;;24.80;86.70;;;;;;4969605;29;20058;-93
2021/01/03 06:43:47;;;;;;;1.45;0.60;;;24.80;86.20;;;;;;4953181;29;20031;-90
2021/01/03 06:46:33;;;;;;;2.35;0.60;;;24.80;86.00;;;;;;4952572;29;20031;-91
2021/01/03 06:49:46;;;;;;;1.05;0.50;;;24.80;85.00;;;;;;4952415;29;20027;-91
2021/01/03 06:52:52;;;;;;;1.52;0.70;;;24.80;85.00;;;;;;4972819;29;20042;-90
2021/01/03 06:56:10;;;;;;;1.88;0.60;;;24.90;83.80;;;;;;4931577;29;20042;-92
2021/01/03 06:59:14;;;;;;;1.23;0.60;;;24.90;83.30;;;;;;4914468;29;20024;-90
2021/01/03 07:01:51;;;;;;;3.47;0.52;;;25.00;83.70;;;;;;4913693;29;20059;-94
2021/01/03 07:04:32;;;;;;;1.75;0.70;;;25.00;83.00;;;;;;4912860;29;20032;-93
2021/01/03 07:07:02;;;;;;;1.65;0.73;;;25.10;82.80;;;;;;4912655;29;20020;-93
2021/01/03 07:09:29;;;;;;;1.33;0.60;;;25.10;81.60;;;;;;4912948;29;20071;-93
2021/01/03 07:11:58;;;;;;;0.70;0.60;;;25.10;82.00;;;;;;4911348;29;20100;-93
2021/01/03 07:14:25;;;;;;;1.80;0.60;;;25.10;81.90;;;;;;4911857;29;20088;-92
2021/01/03 07:17:37;;;;;;;1.05;0.50;;;25.10;81.50;;;;;;4912170;29;20047;-91
2021/01/03 07:20:06;;;;;;;1.50;0.50;;;25.20;80.50;;;;;;4912072;29;20024;-93
2021/01/03 07:22:56;;;;;;;0.60;0.38;;;25.10;81.00;;;;;;4928404;29;20107;-92
2021/01/03 07:26:01;;;;;;;1.02;0.60;;;25.10;80.10;;;;;;4898558;29;20068;-93
2021/01/03 07:28:35;;;;;;;1.02;0.40;;;25.20;80.40;;;;;;4930320;29;20028;-93
2021/01/03 07:31:16;;;;;;;1.60;0.55;;;25.30;79.20;;;;;;4902112;29;20075;-92
2021/01/03 07:37:25;;;;;;;0.95;0.43;;;25.20;78.90;;;;;;4909854;29;20039;-93
2021/01/03 07:40:07;;;;;;;1.52;0.30;;;25.20;79.60;;;;;;4893049;29;20024;-91
2021/01/03 07:42:48;;;;;;;0.65;0.32;;;25.20;78.30;;;;;;4893892;29;20029;-94
2021/01/03 07:45:14;;;;;;;1.55;0.55;;;25.20;79.50;;;;;;4892743;29;20047;-92
2021/01/03 07:47:53;;;;;;;0.63;0.40;;;25.30;78.80;;;;;;4892855;29;20037;-93
2021/01/03 07:50:37;;;;;;;1.75;0.30;;;25.30;79.30;;;;;;4892426;29;20185;-93
2021/01/03 07:53:29;;;;;;;3.83;0.40;;;25.20;78.40;;;;;;4908270;29;20052;-93
2021/01/03 07:56:26;;;;;;;0.73;0.40;;;25.20;78.70;;;;;;4892756;29;20024;-88
2021/01/03 07:58:58;;;;;;;1.42;0.50;;;25.30;78.90;;;;;;4912684;29;20189;-92
2021/01/03 08:01:37;;;;;;;1.35;0.50;;;25.30;79.50;;;;;;4928612;29;20063;-93
2021/01/03 08:04:28;;;;;;;2.22;0.45;;;25.30;78.90;;;;;;4930136;29;20027;-92
2021/01/03 08:07:11;;;;;;;2.28;0.50;;;25.30;79.30;;;;;;4921288;29;20035;-92
2021/01/03 08:09:38;;;;;;;0.65;0.35;;;25.30;79.80;;;;;;4926962;29;20030;-92
2021/01/03 08:12:19;;;;;;;0.30;0.20;;;25.20;79.40;;;;;;4930768;29;20367;-91
2021/01/03 08:15:28;;;;;;;1.05;0.60;;;25.20;80.10;;;;;;4931087;29;20036;-92
2021/01/03 08:18:18;;;;;;;2.38;0.47;;;25.20;80.20;;;;;;4892200;29;20103;-91
2021/01/03 08:20:46;;;;;;;2.75;0.40;;;25.10;80.20;;;;;;4892159;29;20027;-91
2021/01/03 08:23:20;;;;;;;0.40;0.35;;;25.10;79.70;;;;;;4876040;29;20160;-91
2021/01/03 08:25:46;;;;;;;0.40;0.35;;;25.10;79.70;;;;;;4892185;29;20024;-92
2021/01/03 08:28:19;;;;;;;3.20;0.70;;;25.10;80.20;;;;;;4892065;29;20064;-92
2021/01/03 08:30:51;;;;;;;0.80;0.40;;;25.10;79.80;;;;;;4904221;29;20047;-92
2021/01/03 08:33:38;;;;;;;2.08;0.32;;;25.10;80.10;;;;;;4911709;29;20032;-93
2021/01/03 08:36:24;;;;;;;4.00;0.50;;;25.10;80.50;;;;;;4911612;29;20036;-93
2021/01/03 08:38:59;;;;;;;1.15;0.50;;;25.00;80.70;;;;;;4912149;29;20048;-92
2021/01/03 08:41:30;;;;;;;0.93;0.50;;;25.00;81.60;;;;;;4910815;29;20028;-90
2021/01/03 08:44:12;;;;;;;3.10;0.38;;;25.00;81.60;;;;;;4910532;29;20261;-92
2021/01/03 08:46:40;;;;;;;0.57;0.30;;;25.00;81.80;;;;;;4926733;29;20032;-91
2021/01/03 08:49:09;;;;;;;1.77;0.50;;;25.00;82.00;;;;;;4933686;29;20329;-92
2021/01/03 08:51:37;;;;;;;1.75;0.45;;;25.00;81.60;;;;;;4954302;29;20366;-92
2021/01/03 08:54:10;;;;;;;0.90;0.40;;;25.00;82.30;;;;;;4949483;29;20046;-91
2021/01/03 08:56:51;;;;;;;1.52;0.40;;;24.90;83.00;;;;;;4948864;29;20054;-92
2021/01/03 08:59:19;;;;;;;0.60;0.32;;;24.90;82.40;;;;;;4949225;29;20019;-92
2021/01/03 09:01:46;;;;;;;4.22;0.50;;;24.90;82.50;;;;;;4948632;29;20192;-91
2021/01/03 09:04:17;;;;;;;0.85;0.40;;;24.90;82.50;;;;;;4948796;29;20039;-92
2021/01/03 09:06:52;;;;;;;2.97;0.60;;;24.80;82.00;;;;;;4966485;29;20090;-92
2021/01/03 09:09:22;;;;;;;2.83;0.60;;;24.80;82.70;;;;;;4948625;29;20202;-92
2021/01/03 09:11:59;;;;;;;1.50;0.40;;;24.80;82.50;;;;;;4948796;29;20264;-92
2021/01/03 09:14:36;;;;;;;1.40;0.45;;;24.80;82.70;;;;;;4949031;29;20203;-91
2021/01/03 09:17:10;;;;;;;3.58;0.80;;;24.80;83.20;;;;;;4948976;29;20068;-93
2021/01/03 09:19:42;;;;;;;2.80;0.50;;;24.70;82.90;;;;;;4951705;29;20021;-92
2021/01/03 09:22:12;;;;;;;1.35;0.63;;;24.70;82.80;;;;;;4952675;29;20240;-92
2021/01/03 09:24:59;;;;;;;1.13;0.63;;;24.70;83.00;;;;;;4952452;29;20019;-90
2021/01/03 09:27:32;;;;;;;1.67;0.50;;;24.70;82.70;;;;;;4952675;29;20037;-91
2021/01/03 09:30:08;;;;;;;1.20;0.52;;;24.70;82.90;;;;;;4951787;29;20070;-92
2021/01/03 09:32:35;;;;;;;0.60;0.43;;;24.70;82.90;;;;;;4952691;29;20031;-92
2021/01/03 09:35:08;;;;;;;3.13;0.63;;;24.70;83.10;;;;;;4951625;29;20046;-91
2021/01/03 09:37:41;;;;;;;1.35;0.65;;;24.60;83.20;;;;;;4952360;29;20028;-92
2021/01/03 09:40:45;;;;;;;2.70;0.77;;;24.70;83.10;;;;;;4951767;29;20290;-91
2021/01/03 09:43:58;;;;;;;1.10;0.47;;;24.60;83.30;;;;;;4952537;29;20031;-91
2021/01/03 09:46:31;;;;;;;1.15;0.50;;;24.60;83.00;;;;;;4952470;29;20042;-92
2021/01/03 09:49:29;;;;;;;1.48;0.60;;;24.60;83.70;;;;;;4951927;29;20046;-92
2021/01/03 09:52:29;;;;;;;3.67;0.85;;;24.50;83.50;;;;;;4952125;29;20038;-91
2021/01/03 09:55:40;;;;;;;11.45;2.97;;;24.50;84.40;;;;;;4952104;29;20034;-91
2021/01/03 09:58:08;;;;;;;9.48;2.40;;;24.40;83.40;;;;;;4953158;29;20042;-91
2021/01/03 10:00:53;;;;;;;6.00;2.53;;;24.40;84.90;;;;;;4953549;29;20015;-92
2021/01/03 10:03:37;;;;;;;5.03;1.75;;;24.50;83.80;;;;;;4969409;29;20310;-90
2021/01/03 10:06:13;;;;;;;;;;;24.50;84.20;;;;;;4970929;29;20311;-90
2021/01/03 10:08:39;;;;;;;3.88;1.00;;;24.60;83.50;;;;;;4951709;29;19965;-90
2021/01/03 10:11:06;;;;;;;1.77;0.73;;;24.70;84.00;;;;;;4951879;29;20023;-92
2021/01/03 10:13:34;;;;;;;2.25;0.85;;;24.60;84.40;;;;;;4951211;29;20331;-91
2021/01/03 10:16:21;;;;;;;2.03;0.90;;;24.60;84.20;;;;;;4951123;29;20031;-91
2021/01/03 10:18:48;;;;;;;3.30;1.20;;;24.60;84.00;;;;;;4951205;29;20049;-91
2021/01/03 10:21:36;;;;;;;2.38;1.10;;;24.60;84.20;;;;;;4952280;29;20019;-92
2021/01/03 10:24:19;;;;;;;3.65;0.80;;;24.60;84.20;;;;;;4953134;29;20023;-91
2021/01/03 10:27:12;;;;;;;1.58;0.77;;;24.60;83.90;;;;;;4952777;29;20035;-93
2021/01/03 10:29:39;;;;;;;1.55;0.77;;;24.60;84.50;;;;;;4969057;28;20066;-92
2021/01/03 10:32:07;;;;;;;1.38;0.73;;;24.60;84.20;;;;;;4952843;29;20110;-91
2021/01/03 10:34:33;;;;;;;1.83;1.10;;;24.70;85.00;;;;;;4950792;29;20047;-93
2021/01/03 10:40:05;;;;;;;3.42;1.92;;;24.60;84.70;;;;;;4968113;29;20025;-92
2021/01/03 10:42:32;;;;;;;2.83;1.23;;;24.60;85.50;;;;;;4949566;29;20098;-93
2021/01/03 10:45:25;;;;;;;2.17;0.93;;;24.30;86.20;;;;;;4952963;29;20023;-94
2021/01/03 10:47:53;;;;;;;3.75;0.85;;;24.20;88.20;;;;;;4953619;29;20094;-92
2021/01/03 10:50:22;;;;;;;2.13;0.93;;;24.10;89.30;;;;;;4952014;29;20031;-92
2021/01/03 10:52:49;;;;;;;2.30;0.90;;;24.20;88.90;;;;;;4954052;29;20031;-91
2021/01/03 10:55:19;;;;;;;1.00;0.70;;;24.10;89.80;;;;;;4954264;29;20027;-90
2021/01/03 10:57:45;;;;;;;1.42;1.15;;;24.00;90.30;;;;;;4950562;29;20034;-90
2021/01/03 11:00:14;;;;;;;3.33;0.80;;;23.90;90.80;;;;;;4951358;29;20119;-90
2021/01/03 11:02:52;;;;;;;2.40;1.02;;;23.90;90.70;;;;;;4952778;29;20215;-94
2021/01/03 11:05:26;;;;;;;1.05;0.63;;;24.00;90.70;;;;;;4952238;29;20026;-95
2021/01/03 11:07:53;;;;;;;1.83;1.02;;;24.10;90.70;;;;;;4951200;29;20031;-91
2021/01/03 11:10:20;;;;;;;3.10;1.10;;;24.10;90.50;;;;;;4968550;29;20026;-92
2021/01/03 11:12:48;;;;;;;1.15;0.68;;;24.10;90.20;;;;;;4950861;29;20042;-90
2021/01/03 11:15:15;;;;;;;4.22;1.17;;;24.20;90.20;;;;;;4951591;29;20027;-92
2021/01/03 11:17:51;;;;;;;2.15;1.10;;;24.20;90.20;;;;;;4950765;29;20023;-92
2021/01/03 11:20:18;;;;;;;1.27;1.08;;;24.10;90.50;;;;;;4934944;29;20039;-92
2021/01/03 11:22:44;;;;;;;1.77;0.90;;;24.00;90.90;;;;;;4949237;29;20023;-91
2021/01/03 11:25:15;;;;;;;3.35;1.45;;;24.10;91.00;;;;;;4949771;29;20031;-91
2021/01/03 11:27:42;;;;;;;2.08;1.38;;;24.10;90.70;;;;;;4950451;29;20139;-92
2021/01/03 11:30:10;;;;;;;2.33;1.20;;;24.10;91.00;;;;;;4949179;29;20047;-92
2021/01/03 11:32:42;;;;;;;2.95;1.55;;;24.20;90.70;;;;;;4933907;29;20337;-91
2021/01/03 11:35:10;;;;;;;2.13;1.50;;;24.30;90.70;;;;;;4967176;29;20115;-92
2021/01/03 11:37:37;;;;;;;3.60;1.45;;;24.50;90.10;;;;;;4967903;29;20023;-94
2021/01/03 11:40:08;;;;;;;4.70;1.83;;;24.60;89.70;;;;;;4934917;29;20051;-92
2021/01/03 11:42:38;;;;;;;7.53;3.53;;;24.70;89.80;;;;;;4948837;29;20025;-90
2021/01/03 11:45:15;;;;;;;6.95;2.83;;;24.80;90.10;;;;;;4950021;29;20260;-91
2021/01/03 11:47:42;;;;;;;4.72;1.88;;;24.90;89.10;;;;;;4948057;29;20018;-91
2021/01/03 11:50:13;;;;;;;3.63;1.58;;;25.00;90.10;;;;;;4966917;29;20027;-92
2021/01/03 11:52:40;;;;;;;4.50;2.10;;;25.00;89.30;;;;;;4949613;29;20027;-94
2021/01/03 11:55:16;;;;;;;4.68;1.50;;;25.00;89.20;;;;;;4950853;29;20031;-95
2021/01/03 11:57:46;;;;;;;1.42;1.17;;;24.90;88.90;;;;;;4949746;29;20027;-92
2021/01/03 12:00:16;;;;;;;3.15;1.35;;;24.90;89.00;;;;;;4965622;29;20297;-91
2021/01/03 12:02:43;;;;;;;3.28;1.23;;;25.00;88.70;;;;;;4966360;29;20022;-91
2021/01/03 12:05:17;;;;;;;1.13;0.63;;;25.00;88.60;;;;;;4966345;29;20042;-91
2021/01/03 12:07:44;;;;;;;2.25;1.05;;;25.00;88.10;;;;;;4949343;29;20027;-91
2021/01/03 12:10:12;;;;;;;4.80;1.15;;;24.90;88.40;;;;;;4949312;29;20311;-89
2021/01/03 12:12:38;;;;;;;3.75;1.05;;;24.90;88.90;;;;;;4949061;29;20023;-94
2021/01/03 12:15:06;;;;;;;1.48;1.00;;;24.80;88.90;;;;;;4948279;29;20033;-89
2021/01/03 12:17:32;;;;;;;3.83;0.95;;;24.80;89.40;;;;;;4965977;29;20024;-90
2021/01/03 12:19:59;;;;;;;1.98;1.33;;;24.80;89.90;;;;;;4948380;29;20031;-91
2021/01/03 12:22:26;;;;;;;3.92;1.50;;;24.80;90.00;;;;;;4948702;29;20039;-90
2021/01/03 12:24:53;;;;;;;2.53;1.15;;;24.80;90.50;;;;;;4934180;29;20319;-91
2021/01/03 12:27:20;;;;;;;4.05;1.50;;;24.80;91.30;;;;;;4948625;29;20031;-91
2021/01/03 12:29:49;;;;;;;6.20;3.70;;;24.70;91.00;;;;;;4948620;29;20223;-90
2021/01/03 12:32:17;;;;;;;2.95;1.25;;;24.40;91.40;;;;;;4948780;29;20074;-90
2021/01/03 12:34:44;;;;;;;6.50;1.80;;;24.20;91.80;;;;;;4948806;29;20372;-91
2021/01/03 12:37:12;;;;;;;15.00;2.67;;;24.30;91.70;;;;;;4948572;29;20019;-90
2021/01/03 12:39:42;;;;;;;13.07;2.85;;;24.50;91.80;;;;;;4932713;29;20027;-91
2021/01/03 12:42:18;;;;;;;9.55;2.00;;;24.60;92.50;;;;;;4948444;29;20019;-91
2021/01/03 12:44:45;;;;;;;12.68;2.60;;;24.60;91.70;;;;;;4966042;29;20023;-90
2021/01/03 12:47:12;;;;;;;5.00;1.98;;;24.80;91.90;;;;;;4948095;29;20038;-91
2021/01/03 12:49:39;;;;;;;6.55;1.75;;;24.80;91.70;;;;;;4965802;29;20031;-91
2021/01/03 12:52:06;;;;;;;2.88;1.27;;;24.80;91.50;;;;;;4948106;29;20025;-91
2021/01/03 12:54:32;;;;;;;4.22;1.98;;;24.90;91.80;;;;;;4952046;29;20055;-90
2021/01/03 12:56:59;;;;;;;7.57;1.70;;;24.90;91.60;;;;;;4953004;29;20031;-90
2021/01/03 12:59:28;;;;;;;6.85;1.75;;;25.00;91.10;;;;;;4953456;29;20050;-91
2021/01/03 13:01:55;;;;;;;4.20;1.80;;;25.10;90.90;;;;;;4952433;29;20067;-92
2021/01/03 13:04:24;;;;;;;4.05;1.83;;;25.10;91.90;;;;;;4955831;29;20382;-94
2021/01/03 13:06:50;;;;;;;6.65;2.13;;;25.10;91.30;;;;;;4953150;29;20035;-93
2021/01/03 13:09:20;;;;;;;4.80;1.50;;;25.20;90.80;;;;;;4952314;29;20055;-93
2021/01/03 13:11:48;;;;;;;2.65;0.93;;;25.30;91.10;;;;;;4952636;29;20023;-94
2021/01/03 13:14:18;;;;;;;2.88;1.10;;;25.30;90.90;;;;;;4954917;29;20050;-94
2021/01/03 13:16:46;;;;;;;2.95;1.75;;;25.40;90.90;;;;;;4952703;29;20323;-95
2021/01/03 13:19:15;;;;;;;3.63;1.10;;;25.40;90.30;;;;;;4951094;29;20023;-95
2021/01/03 13:21:46;;;;;;;2.28;1.40;;;25.40;90.20;;;;;;4947902;29;20022;-92
2021/01/03 13:24:16;;;;;;;2.13;1.30;;;25.50;90.40;;;;;;4971752;29;20077;-92
2021/01/03 13:26:43;;;;;;;5.40;1.60;;;25.60;89.90;;;;;;4953112;29;20331;-92
2021/01/03 13:29:11;;;;;;;4.03;1.38;;;25.60;90.60;;;;;;4951855;29;20029;-93
2021/01/03 13:31:48;;;;;;;2.35;1.75;;;25.70;89.30;;;;;;4952179;29;20055;-93
2021/01/03 13:34:17;;;;;;;2.58;1.27;;;25.60;90.90;;;;;;4941721;29;20035;-93
2021/01/03 13:36:45;;;;;;;2.65;1.13;;;25.80;89.30;;;;;;4952952;29;20105;-92
2021/01/03 13:39:14;;;;;;;3.38;1.08;;;25.80;87.20;;;;;;4952569;29;20045;-89
2021/01/03 13:41:41;;;;;;;2.35;1.33;;;25.80;87.90;;;;;;4953736;29;20239;-92
2021/01/03 13:44:09;;;;;;;5.60;1.65;;;25.80;87.10;;;;;;4953202;29;20027;-91